SKW3022 KMFR-KSAN
Flight info
| Callsign | SKW3022 |
|---|---|
| Flight time | N/A |
| Altitude | 35000 |
| Route | JKSN1 OED RBL FRA HUULK COMIX2 |
| Aircraft | E175/M-SDE3GILORVW/S |
Departure
| Time | 2026-04-13 00:13 |
|---|---|
| Airport | Rogue Valley International-Medford Airport (KMFR) |
Arrival
| Time | N/A |
|---|---|
| Airport | San Diego International Airport (KSAN) |
| Time | Latitude | Longitude | Altitude | Speed | Heading |
|---|---|---|---|---|---|
| 2026-04-12 23:34 | 42.36863 | -122.87321 | 1323 ft | 0 kts | 247° |
| 2026-04-13 00:06 | 42.36870 | -122.87297 | 1323 ft | 4 kts | 247° |
| 2026-04-13 00:07 | 42.36881 | -122.87264 | 1323 ft | 4 kts | 247° |
| 2026-04-13 00:07 | 42.36891 | -122.87230 | 1323 ft | 4 kts | 247° |
| 2026-04-13 00:07 | 42.36903 | -122.87200 | 1323 ft | 4 kts | 219° |
| 2026-04-13 00:07 | 42.36925 | -122.87191 | 1323 ft | 4 kts | 164° |
| 2026-04-13 00:08 | 42.36945 | -122.87200 | 1323 ft | 4 kts | 159° |
| 2026-04-13 00:08 | 42.36954 | -122.87205 | 1323 ft | 0 kts | 159° |
| 2026-04-13 00:10 | 42.36949 | -122.87202 | 1323 ft | 2 kts | 159° |
| 2026-04-13 00:10 | 42.36928 | -122.87191 | 1323 ft | 5 kts | 157° |
| 2026-04-13 00:10 | 42.36876 | -122.87161 | 1323 ft | 11 kts | 158° |
| 2026-04-13 00:11 | 42.36798 | -122.87121 | 1323 ft | 13 kts | 159° |
| 2026-04-13 00:11 | 42.36706 | -122.87074 | 1323 ft | 15 kts | 160° |
| 2026-04-13 00:11 | 42.36607 | -122.87025 | 1323 ft | 16 kts | 161° |
| 2026-04-13 00:11 | 42.36501 | -122.86975 | 1327 ft | 15 kts | 158° |
| 2026-04-13 00:12 | 42.36413 | -122.86926 | 1331 ft | 13 kts | 156° |
| 2026-04-13 00:12 | 42.36356 | -122.86854 | 1334 ft | 11 kts | 101° |
| 2026-04-13 00:12 | 42.36383 | -122.86762 | 1339 ft | 10 kts | 45° |
| 2026-04-13 00:12 | 42.36484 | -122.86801 | 1333 ft | 44 kts | 337° |
| 2026-04-13 00:13 | 42.37016 | -122.87088 | 1328 ft | 118 kts | 339° |
| 2026-04-13 00:13 | 42.38001 | -122.87559 | 1409 ft | 174 kts | 337° |
| 2026-04-13 00:13 | 42.39165 | -122.88245 | 2026 ft | 193 kts | 328° |
| 2026-04-13 00:13 | 42.40415 | -122.89092 | 2840 ft | 204 kts | 334° |
| 2026-04-13 00:14 | 42.41801 | -122.89709 | 3565 ft | 215 kts | 346° |
| 2026-04-13 00:14 | 42.43279 | -122.90026 | 4418 ft | 217 kts | 348° |
| 2026-04-13 00:14 | 42.44812 | -122.90437 | 4932 ft | 232 kts | 340° |
| 2026-04-13 00:14 | 42.46194 | -122.91661 | 5231 ft | 251 kts | 308° |
| 2026-04-13 00:15 | 42.46920 | -122.93848 | 5725 ft | 261 kts | 278° |
| 2026-04-13 00:15 | 42.46829 | -122.96301 | 6412 ft | 265 kts | 257° |
| 2026-04-13 00:15 | 42.45978 | -122.98522 | 7061 ft | 269 kts | 231° |
| 2026-04-13 00:15 | 42.44466 | -123.00021 | 7704 ft | 274 kts | 204° |
| 2026-04-13 00:16 | 42.42578 | -123.00446 | 8355 ft | 279 kts | 179° |
| 2026-04-13 00:16 | 42.40628 | -123.00184 | 8960 ft | 283 kts | 173° |
| 2026-04-13 00:16 | 42.38684 | -122.99669 | 9550 ft | 287 kts | 169° |
| 2026-04-13 00:16 | 42.36728 | -122.99059 | 10099 ft | 290 kts | 169° |
| 2026-04-13 00:17 | 42.34695 | -122.98450 | 10223 ft | 309 kts | 169° |
| 2026-04-13 00:17 | 42.32543 | -122.97776 | 10280 ft | 326 kts | 167° |
| 2026-04-13 00:17 | 42.30292 | -122.97030 | 10449 ft | 337 kts | 167° |
| 2026-04-13 00:17 | 42.27995 | -122.96312 | 10829 ft | 341 kts | 168° |
| 2026-04-13 00:18 | 42.25666 | -122.95643 | 11298 ft | 342 kts | 169° |
| 2026-04-13 00:18 | 42.23334 | -122.94991 | 11780 ft | 344 kts | 169° |
| 2026-04-13 00:18 | 42.20979 | -122.94347 | 12224 ft | 346 kts | 169° |
| 2026-04-13 00:18 | 42.18607 | -122.93701 | 12720 ft | 349 kts | 169° |
| 2026-04-13 00:19 | 42.16217 | -122.93042 | 13214 ft | 351 kts | 168° |
| 2026-04-13 00:19 | 42.13811 | -122.92360 | 13729 ft | 355 kts | 168° |
| 2026-04-13 00:19 | 42.11385 | -122.91674 | 14182 ft | 358 kts | 168° |
| 2026-04-13 00:19 | 42.08948 | -122.90976 | 14695 ft | 359 kts | 168° |
| 2026-04-13 00:20 | 42.06485 | -122.90302 | 15109 ft | 364 kts | 168° |
| 2026-04-13 00:20 | 42.03990 | -122.89633 | 15617 ft | 367 kts | 168° |
| 2026-04-13 00:20 | 42.01481 | -122.88942 | 16075 ft | 371 kts | 167° |
| 2026-04-13 00:20 | 41.99811 | -122.88466 | 16422 ft | 372 kts | 167° |
| 2026-04-13 00:21 | 41.99120 | -122.88265 | 16570 ft | 371 kts | 167° |
| 2026-04-13 00:21 | 41.97202 | -122.87772 | 16938 ft | 374 kts | 171° |